Thunder radar more information blitzortung!


Radar de pluja more information rain snow radar


Visita la nostra xarxa de llocs de meteo:

Template documentation
and downloads

And another site



No particular awareness of the weather is required.    There are no Weather-warnings

Pagina Historial Weather Underground text

Diari Resum Juny 12, 2016 Unitats:  Mètric    Imperial   Tant
« Previous Dia
SegĂźent Dia »
Diari Setmana Mensual Anual Personalitzada
  Maxima: Minima: Media:
Temperatura: -17.8 °C -8.6 °C -5.6 °C
Punt de rosada: -17.8 °C -14.3 °C -10.9 °C
Humitat: Humidity % 24 % 58 %
Wind Speed: 0 km/h 0 km/h 6.9 km/h
RĂ fegues de vent: 0 km/h - -
Vent:- - SSE
Pression baro: 0 hPa 34222.3 hPa -
Precipitacions: 0 mm    
Historical Graphs
 
 
Dades de taula per Juny 12, 2016
Temps Temperatura Punt de rosada Pression baro Vent Wind Speed RĂ fegues de vent Humitat Rainfall Rate (Hourly)
-17.8 °C -17.8 °C 0 hPa Calm     Humidity % 0 mm
00:00 -8.2 °C -11 °C 34327.3 hPa SW 2.6 km/h   72 % 0 mm
00:10 -8.1 °C -10.9 °C 34327.3 hPa SW 2.6 km/h   72 % 0 mm
00:20 -8.1 °C -10.8 °C 34327.3 hPa SW 2.6 km/h   73 % 0 mm
00:30 -8.2 °C -10.9 °C 34327.3 hPa SW 2.6 km/h   73 % 0 mm
00:40 -8.3 °C -10.9 °C 34327.3 hPa SW 2.6 km/h   74 % 0 mm
00:50 -8.5 °C -11 °C 34327.3 hPa SW 2.6 km/h   75 % 0 mm
01:00 -8.5 °C -11 °C 34327.3 hPa SW 2.6 km/h   75 % 0 mm
01:10 -8.5 °C -11 °C 34327.3 hPa SW 2.6 km/h   75 % 0 mm
01:20 -8.5 °C -11 °C 34327.3 hPa SW 2.6 km/h   75 % 0 mm
01:30 -8.6 °C -11.1 °C 34327.3 hPa SW 2.6 km/h   75 % 0 mm
01:40 -8.5 °C -11 °C 34327.3 hPa SW 2.6 km/h   75 % 0 mm
01:50 -8.5 °C -11 °C 34327.3 hPa SW 2.6 km/h   75 % 0 mm
02:00 -8.4 °C -10.9 °C 34327.3 hPa SW 2.6 km/h   75 % 0 mm
02:10 -8.5 °C -11 °C 34327.3 hPa SW 2.6 km/h   75 % 0 mm
02:20 -8.4 °C -10.9 °C 34361.1 hPa SW 2.6 km/h   75 % 0 mm
02:30 -8.3 °C -10.9 °C 34361.1 hPa SW 2.6 km/h   74 % 0 mm
02:40 -8.1 °C -10.7 °C 34361.1 hPa SSW 2.6 km/h 2.6 km/h 74 % 0 mm
02:50 -8 °C -10.7 °C 34361.1 hPa ENE 2.6 km/h 5.1 km/h 73 % 0 mm
03:00 -7.9 °C -10.6 °C 34361.1 hPa NE 2.6 km/h 5.1 km/h 73 % 0 mm
03:10 -7.8 °C -10.7 °C 34361.1 hPa Calm   2.6 km/h 72 % 0 mm
03:20 -7.7 °C -10.5 °C 34361.1 hPa Calm   2.6 km/h 72 % 0 mm
03:30 -7.7 °C -10.5 °C 34361.1 hPa Calm   2.6 km/h 72 % 0 mm
03:40 -7.6 °C -10.4 °C 34361.1 hPa Calm   5.1 km/h 72 % 0 mm
03:50 -7.4 °C -10.3 °C 34361.1 hPa SW 2.6 km/h 10.3 km/h 72 % 0 mm
04:00 -7.3 °C -10.2 °C 34395 hPa Calm   2.6 km/h 72 % 0 mm
04:10 -7.2 °C -10.2 °C 34395 hPa Calm   2.6 km/h 71 % 0 mm
04:20 -7.2 °C -10.3 °C 34395 hPa ESE 2.6 km/h 5.1 km/h 70 % 0 mm
04:30 -7.1 °C -10.2 °C 34395 hPa East 2.6 km/h 7.7 km/h 70 % 0 mm
04:40 -6.9 °C -10.7 °C 34395 hPa East 5.1 km/h 10.3 km/h 65 % 0 mm
04:50 -6.7 °C -11.9 °C 34361.1 hPa WSW 7.7 km/h 20.8 km/h 55 % 0 mm
05:00 -6.5 °C -11.8 °C 34361.1 hPa WSW 5.1 km/h 7.7 km/h 54 % 0 mm
05:10 -6.3 °C -11.8 °C 34361.1 hPa WSW 5.1 km/h 5.1 km/h 53 % 0 mm
05:20 -6.3 °C -12.6 °C 34361.1 hPa WSW 7.7 km/h 20.8 km/h 48 % 0 mm
05:30 -6 °C -12.6 °C 34361.1 hPa West 7.7 km/h 12.9 km/h 47 % 0 mm
05:40 -5.9 °C -12.4 °C 34361.1 hPa West 5.1 km/h 10.3 km/h 47 % 0 mm
05:50 -5.6 °C -12.3 °C 34361.1 hPa WSW 5.1 km/h 10.3 km/h 46 % 0 mm
06:00 -5.5 °C -12.4 °C 34361.1 hPa WSW 5.1 km/h 12.9 km/h 45 % 0 mm
06:10 -5.2 °C -12.2 °C 34361.1 hPa SW 7.7 km/h 7.7 km/h 45 % 0 mm
06:20 -5.1 °C -12.1 °C 34361.1 hPa WSW 5.1 km/h 7.7 km/h 45 % 0 mm
06:40 -4.8 °C -12.4 °C 34361.1 hPa WSW 2.6 km/h 7.7 km/h 42 % 0 mm
06:50 -4.7 °C -12.3 °C 34361.1 hPa West 5.1 km/h 10.3 km/h 42 % 0 mm
07:00 -4.3 °C -12.2 °C 34395 hPa WSW 5.1 km/h 12.9 km/h 41 % 0 mm
07:10 -4 °C -11.8 °C 34395 hPa SW 7.7 km/h 7.7 km/h 41 % 0 mm
07:20 -3.7 °C -12.3 °C 34361.1 hPa WSW 5.1 km/h 10.3 km/h 38 % 0 mm
07:30 -3.7 °C -13.4 °C 34361.1 hPa WSW 7.7 km/h 18.2 km/h 33 % 0 mm
07:40 -3.6 °C -14.1 °C 34361.1 hPa WSW 7.7 km/h 20.8 km/h 30 % 0 mm
07:50 -3.5 °C -14.3 °C 34361.1 hPa WSW 12.9 km/h 20.8 km/h 29 % 0 mm
08:00 -3.1 °C -13.9 °C 34361.1 hPa WSW 15.6 km/h 15.6 km/h 29 % 0 mm
08:10 -3.1 °C -14.2 °C 34361.1 hPa WSW 7.7 km/h 18.2 km/h 28 % 0 mm
08:20 -2.9 °C -14.1 °C 34327.3 hPa WSW 7.7 km/h 12.9 km/h 28 % 0 mm
08:30 -2.6 °C -13.7 °C 34361.1 hPa West 7.7 km/h 15.6 km/h 28 % 0 mm
08:40 -2.6 °C -13.8 °C 34361.1 hPa West 7.7 km/h 12.9 km/h 28 % 0 mm
08:50 -2.4 °C -13.9 °C 34327.3 hPa WSW 5.1 km/h 10.3 km/h 27 % 0 mm
09:00 -2.3 °C -13.8 °C 34327.3 hPa WSW 18.2 km/h 38.8 km/h 27 % 0 mm
09:10 -2.2 °C -13.7 °C 34327.3 hPa WSW 7.7 km/h 15.6 km/h 27 % 0 mm
09:20 -2.2 °C -14 °C 34327.3 hPa West 12.9 km/h 28.5 km/h 26 % 0 mm
09:30 -1.9 °C -13.8 °C 34327.3 hPa West 7.7 km/h 10.3 km/h 26 % 0 mm
09:40 -1.8 °C -14.1 °C 34327.3 hPa WSW 15.6 km/h 20.8 km/h 25 % 0 mm
09:50 -1.2 °C -13.5 °C 34327.3 hPa SW 12.9 km/h 20.8 km/h 25 % 0 mm
10:00 -1.2 °C -13.5 °C 34327.3 hPa West 12.9 km/h 20.8 km/h 25 % 0 mm
10:10 -1.2 °C -13.5 °C 34327.3 hPa West 5.1 km/h 20.8 km/h 25 % 0 mm
10:20 -1.2 °C -13.5 °C 34293.4 hPa WSW 12.9 km/h 20.8 km/h 25 % 0 mm
10:30 -1.2 °C -13.5 °C 34293.4 hPa WSW 7.7 km/h 15.6 km/h 25 % 0 mm
10:40 -1.1 °C -13.8 °C 34293.4 hPa WSW 18.2 km/h 25.9 km/h 24 % 0 mm
10:50 -1.4 °C -14 °C 34293.4 hPa SW 15.6 km/h 25.9 km/h 24 % 0 mm
11:00 -1.6 °C -14.1 °C 34293.4 hPa SW 7.7 km/h 25.9 km/h 24 % 0 mm
11:10 -1.5 °C -14.1 °C 34293.4 hPa SW 18.2 km/h 18.2 km/h 24 % 0 mm
11:20 -1.5 °C -14.1 °C 34293.4 hPa SW 12.9 km/h 20.8 km/h 24 % 0 mm
11:30 -1.3 °C -13.9 °C 34293.4 hPa SW 5.1 km/h 15.6 km/h 24 % 0 mm
11:40 -1 °C -13.7 °C 34293.4 hPa SW 2.6 km/h 7.7 km/h 24 % 0 mm
11:50 -1.3 °C -13.6 °C 34293.4 hPa WSW 7.7 km/h 12.9 km/h 25 % 0 mm
12:00 -1.1 °C -13.4 °C 34293.4 hPa WSW 7.7 km/h 10.3 km/h 25 % 0 mm
12:10 -1 °C -13.3 °C 34293.4 hPa WSW 5.1 km/h 7.7 km/h 25 % 0 mm
12:20 -2.6 °C -13.4 °C 34293.4 hPa NE 15.6 km/h 20.8 km/h 29 % 0 mm
12:30 -3.3 °C -13.5 °C 34256.2 hPa ENE 15.6 km/h 31.1 km/h 31 % 0 mm
12:40 -3.5 °C -12.3 °C 34256.2 hPa ENE 12.9 km/h 20.8 km/h 37 % 0 mm
12:50 -3.6 °C -11.7 °C 34256.2 hPa East 20.8 km/h 23.3 km/h 40 % 0 mm
13:00 -3.8 °C -11.1 °C 34256.2 hPa East 18.2 km/h 33.6 km/h 44 % 0 mm
13:10 -3.8 °C -10.5 °C 34256.2 hPa East 12.9 km/h 23.3 km/h 47 % 0 mm
13:20 -4 °C -10.4 °C 34222.3 hPa East 20.8 km/h 31.1 km/h 49 % 0 mm
13:30 -4 °C -10.2 °C 34256.2 hPa East 18.2 km/h 31.1 km/h 50 % 0 mm
13:40 -4.1 °C -10.2 °C 34256.2 hPa East 20.8 km/h 28.5 km/h 50 % 0 mm
13:50 -4.1 °C -10.2 °C 34256.2 hPa East 20.8 km/h 31.1 km/h 50 % 0 mm
14:00 -4.3 °C -10.3 °C 34256.2 hPa East 18.2 km/h 25.9 km/h 51 % 0 mm
14:10 -4.5 °C -10.4 °C 34256.2 hPa ENE 18.2 km/h 25.9 km/h 51 % 0 mm
14:20 -4.6 °C -10.2 °C 34256.2 hPa ENE 15.6 km/h 23.3 km/h 53 % 0 mm
14:30 -4.7 °C -10.2 °C 34222.3 hPa East 7.7 km/h 20.8 km/h 54 % 0 mm
14:40 -4.9 °C -9.8 °C 34222.3 hPa ENE 15.6 km/h 20.8 km/h 58 % 0 mm
14:50 -4.9 °C -9.7 °C 34256.2 hPa ENE 12.9 km/h 18.2 km/h 58 % 0 mm
15:00 -4.9 °C -9.5 °C 34256.2 hPa East 12.9 km/h 15.6 km/h 60 % 0 mm
15:10 -5.1 °C -9.5 °C 34256.2 hPa ENE 12.9 km/h 15.6 km/h 61 % 0 mm
15:20 -5.3 °C -9.4 °C 34293.4 hPa East 15.6 km/h 15.6 km/h 63 % 0 mm
15:30 -5.4 °C -9.4 °C 34293.4 hPa East 12.9 km/h 18.2 km/h 64 % 0 mm
15:40 -5.4 °C -9.3 °C 34293.4 hPa East 12.9 km/h 12.9 km/h 65 % 0 mm
15:50 -5.6 °C -9.3 °C 34293.4 hPa ENE 7.7 km/h 12.9 km/h 66 % 0 mm
16:00 -5.6 °C -9.3 °C 34327.3 hPa ENE 5.1 km/h 12.9 km/h 66 % 0 mm
16:10 -5.7 °C -9 °C 34327.3 hPa ENE 7.7 km/h 15.6 km/h 69 % 0 mm
16:20 -5.7 °C -9 °C 34327.3 hPa East 7.7 km/h 15.6 km/h 69 % 0 mm
16:30 -5.8 °C -9.1 °C 34293.4 hPa East 12.9 km/h 12.9 km/h 69 % 0 mm
16:40 -5.8 °C -9.1 °C 34293.4 hPa East 2.6 km/h 12.9 km/h 69 % 0 mm
16:50 -5.9 °C -9.1 °C 34327.3 hPa East 2.6 km/h 7.7 km/h 70 % 0 mm
17:00 -6 °C -9.1 °C 34327.3 hPa East 2.6 km/h 7.7 km/h 71 % 0 mm
17:10 -6.1 °C -9.1 °C 34327.3 hPa East 2.6 km/h 7.7 km/h 71 % 0 mm
17:20 -6.1 °C -9.1 °C 34327.3 hPa East 2.6 km/h 7.7 km/h 71 % 0 mm
17:30 -6.2 °C -9.1 °C 34361.1 hPa East 2.6 km/h 7.7 km/h 72 % 0 mm
17:40 -6.2 °C -9.1 °C 34361.1 hPa East 2.6 km/h 7.7 km/h 72 % 0 mm
17:50 -6.3 °C -9.1 °C 34361.1 hPa East 2.6 km/h 7.7 km/h 73 % 0 mm
18:00 -6.3 °C -9.1 °C 34327.3 hPa East 2.6 km/h 7.7 km/h 73 % 0 mm
18:10 -6.3 °C -9 °C 34327.3 hPa East 2.6 km/h 7.7 km/h 74 % 0 mm
18:20 -6.4 °C -9.1 °C 34361.1 hPa East 2.6 km/h 7.7 km/h 74 % 0 mm
18:30 -6.4 °C -9 °C 34361.1 hPa East 2.6 km/h 7.7 km/h 75 % 0 mm
18:40 -6.5 °C -8.9 °C 34361.1 hPa ENE 2.6 km/h 5.1 km/h 76 % 0 mm
18:50 -6.5 °C -8.9 °C 34361.1 hPa NE 2.6 km/h 5.1 km/h 76 % 0 mm
19:00 -6.6 °C -8.8 °C 34361.1 hPa NE 2.6 km/h 5.1 km/h 77 % 0 mm
19:10 -6.6 °C -8.8 °C 34361.1 hPa NE 2.6 km/h 5.1 km/h 78 % 0 mm
19:20 -6.6 °C -8.8 °C 34327.3 hPa NE 2.6 km/h 5.1 km/h 78 % 0 mm
19:30 -6.6 °C -8.8 °C 34327.3 hPa NE 2.6 km/h 5.1 km/h 78 % 0 mm
19:40 -6.6 °C -8.8 °C 34327.3 hPa NE 5.1 km/h 10.3 km/h 78 % 0 mm
19:50 -6.8 °C -9 °C 34361.1 hPa East 5.1 km/h 10.3 km/h 78 % 0 mm
20:00 -6.8 °C -8.8 °C 34327.3 hPa ESE 5.1 km/h 10.3 km/h 80 % 0 mm
20:20 -6.9 °C -8.8 °C 34327.3 hPa ESE 5.1 km/h 10.3 km/h 81 % 0 mm
20:30 -7 °C -8.8 °C 34327.3 hPa ESE 5.1 km/h 10.3 km/h 81 % 0 mm
20:40 -7.1 °C -8.9 °C 34327.3 hPa ESE 5.1 km/h 10.3 km/h 81 % 0 mm
20:50 -7.1 °C -8.9 °C 34293.4 hPa ESE 5.1 km/h 10.3 km/h 81 % 0 mm
21:00 -7.1 °C -8.8 °C 34327.3 hPa ESE 5.1 km/h 10.3 km/h 82 % 0 mm
21:10 -7.1 °C -8.8 °C 34327.3 hPa ESE 5.1 km/h 10.3 km/h 82 % 0 mm
21:20 -7.1 °C -8.7 °C 34327.3 hPa ESE 5.1 km/h 10.3 km/h 83 % 0 mm
21:40 -7.1 °C -8.7 °C 34327.3 hPa ESE 5.1 km/h 10.3 km/h 83 % 0 mm
21:50 -7.1 °C -8.7 °C 34327.3 hPa ESE 5.1 km/h 10.3 km/h 83 % 0 mm
22:00 -7.1 °C -8.8 °C 34327.3 hPa ESE 5.1 km/h 10.3 km/h 82 % 0 mm
22:10 -7.1 °C -8.8 °C 34327.3 hPa ESE 5.1 km/h 10.3 km/h 82 % 0 mm
22:20 -7.1 °C -8.8 °C 34327.3 hPa ESE 5.1 km/h 10.3 km/h 82 % 0 mm
22:30 -7.1 °C -8.9 °C 34327.3 hPa ESE 5.1 km/h 10.3 km/h 81 % 0 mm
22:40 -7.1 °C -9 °C 34327.3 hPa ESE 5.1 km/h 10.3 km/h 81 % 0 mm
22:50 -7.2 °C -9 °C 34327.3 hPa ESE 5.1 km/h 10.3 km/h 81 % 0 mm
23:00 -7.2 °C -9.1 °C 34327.3 hPa ESE 5.1 km/h 10.3 km/h 81 % 0 mm
23:10 -7.3 °C -9.1 °C 34327.3 hPa ESE 5.1 km/h 10.3 km/h 82 % 0 mm
23:20 -7.3 °C -9.1 °C 34327.3 hPa ESE 5.1 km/h 10.3 km/h 82 % 0 mm
23:30 -7.4 °C -9.1 °C 34327.3 hPa ESE 5.1 km/h 10.3 km/h 82 % 0 mm
23:40 -7.3 °C -9.1 °C 34327.3 hPa ESE 5.1 km/h 10.3 km/h 82 % 0 mm
23:50 -7.3 °C -9.1 °C 34327.3 hPa ESE 5.1 km/h 10.3 km/h 82 % 0 mm
Meteo Sesrovires
Elogis d' Weather Underground - 3.25 mb

Guio original per  Jim McMurry - jmcmurry@mwt.net Adaptat per a la plantilla per  Wim van der Kuil - Leuven-Template.eu

Trobareu la nostra informacio del temps tambe a:

Weather Underground

AWEKAS